HKE116 VHHH-RCTP
Flight info
| Callsign | HKE116 |
|---|---|
| Flight time | 1h 12m |
| Altitude | 35000 |
| Route | DALOL1X/07R DALOL V631 ENVAR M750 EXTRA/N0437F290 M750 TONGA TONGA1A |
| Aircraft | A321/M-SDE3FGHIRWY/LB1 |
Departure
| Time | 2026-05-04 11:13 |
|---|---|
| Airport | Hong Kong International Airport (VHHH) |
Arrival
| Time | 2026-05-04 12:26 |
|---|---|
| Airport | Taiwan Taoyuan International Airport (RCTP) |
| Time | Latitude | Longitude | Altitude | Speed | Heading |
|---|---|---|---|---|---|
| 2026-05-04 10:44 | 22.31663 | 113.92973 | 32 ft | 0 kts | 81° |
| 2026-05-04 10:56 | 22.31728 | 113.92901 | 32 ft | 4 kts | 64° |
| 2026-05-04 10:56 | 22.31712 | 113.92883 | 31 ft | 4 kts | 12° |
| 2026-05-04 10:56 | 22.31689 | 113.92885 | 32 ft | 4 kts | 341° |
| 2026-05-04 10:57 | 22.31664 | 113.92894 | 30 ft | 4 kts | 341° |
| 2026-05-04 10:57 | 22.31639 | 113.92904 | 31 ft | 4 kts | 341° |
| 2026-05-04 10:57 | 22.31614 | 113.92913 | 32 ft | 4 kts | 341° |
| 2026-05-04 10:57 | 22.31604 | 113.92916 | 31 ft | 1 kts | 341° |
| 2026-05-04 10:58 | 22.31604 | 113.92917 | 31 ft | 0 kts | 341° |
| 2026-05-04 11:01 | 22.31698 | 113.92882 | 32 ft | 6 kts | 341° |
| 2026-05-04 11:02 | 22.31744 | 113.92864 | 31 ft | 9 kts | 341° |
| 2026-05-04 11:02 | 22.31780 | 113.92818 | 32 ft | 8 kts | 276° |
| 2026-05-04 11:05 | 22.30933 | 113.92279 | 32 ft | 0 kts | 161° |
| 2026-05-04 11:06 | 22.30930 | 113.92280 | 32 ft | 3 kts | 161° |
| 2026-05-04 11:06 | 22.30870 | 113.92302 | 31 ft | 10 kts | 161° |
| 2026-05-04 11:06 | 22.30811 | 113.92324 | 32 ft | 8 kts | 161° |
| 2026-05-04 11:06 | 22.30756 | 113.92344 | 31 ft | 9 kts | 161° |
| 2026-05-04 11:08 | 22.30482 | 113.91611 | 32 ft | 21 kts | 250° |
| 2026-05-04 11:10 | 22.30027 | 113.90203 | 32 ft | 25 kts | 251° |
| 2026-05-04 11:12 | 22.29754 | 113.89763 | 32 ft | 7 kts | 162° |
| 2026-05-04 11:12 | 22.29670 | 113.89799 | 30 ft | 15 kts | 141° |
| 2026-05-04 11:12 | 22.29648 | 113.89891 | 30 ft | 11 kts | 77° |
| 2026-05-04 11:12 | 22.29675 | 113.89969 | 30 ft | 20 kts | 70° |
| 2026-05-04 11:13 | 22.29804 | 113.90364 | 31 ft | 89 kts | 70° |
| 2026-05-04 11:13 | 22.30074 | 113.91201 | 32 ft | 144 kts | 70° |
| 2026-05-04 11:13 | 22.30460 | 113.92373 | 91 ft | 182 kts | 70° |
| 2026-05-04 11:13 | 22.30820 | 113.93585 | 1097 ft | 147 kts | 73° |
| 2026-05-04 11:14 | 22.31095 | 113.94652 | 1730 ft | 155 kts | 74° |
| 2026-05-04 11:14 | 22.31334 | 113.95826 | 2203 ft | 162 kts | 77° |
| 2026-05-04 11:14 | 22.31492 | 113.97010 | 2726 ft | 162 kts | 81° |
| 2026-05-04 11:16 | 22.32778 | 114.06781 | 5794 ft | 229 kts | 131° |
| 2026-05-04 11:16 | 22.31582 | 114.07897 | 6324 ft | 238 kts | 151° |
| 2026-05-04 11:16 | 22.30021 | 114.08582 | 6766 ft | 246 kts | 170° |
| 2026-05-04 11:17 | 22.28312 | 114.08725 | 7332 ft | 250 kts | 184° |
| 2026-05-04 11:17 | 22.26490 | 114.08684 | 7588 ft | 271 kts | 184° |
| 2026-05-04 11:19 | 22.13660 | 114.13590 | 10559 ft | 362 kts | 119° |
| 2026-05-04 11:19 | 22.12500 | 114.16039 | 10953 ft | 371 kts | 121° |
| 2026-05-04 11:19 | 22.11236 | 114.18484 | 11512 ft | 374 kts | 123° |
| 2026-05-04 11:19 | 22.09906 | 114.20904 | 12090 ft | 376 kts | 124° |
| 2026-05-04 11:20 | 22.08538 | 114.23317 | 12686 ft | 379 kts | 125° |
| 2026-05-04 11:20 | 22.07152 | 114.25745 | 13247 ft | 382 kts | 125° |
| 2026-05-04 11:20 | 22.05760 | 114.28201 | 13788 ft | 385 kts | 125° |
| 2026-05-04 11:20 | 22.04387 | 114.30646 | 14309 ft | 388 kts | 125° |
| 2026-05-04 11:22 | 21.94379 | 114.48668 | 17744 ft | 411 kts | 124° |
| 2026-05-04 11:22 | 21.92904 | 114.51318 | 18184 ft | 414 kts | 125° |
| 2026-05-04 11:23 | 21.91424 | 114.53983 | 18623 ft | 416 kts | 125° |
| 2026-05-04 11:23 | 21.89933 | 114.56670 | 19060 ft | 420 kts | 124° |
| 2026-05-04 11:24 | 21.80796 | 114.73063 | 21558 ft | 436 kts | 125° |
| 2026-05-04 11:25 | 21.79235 | 114.75862 | 21942 ft | 439 kts | 125° |
| 2026-05-04 11:25 | 21.77675 | 114.78653 | 22313 ft | 441 kts | 125° |
| 2026-05-04 11:25 | 21.76143 | 114.81579 | 22680 ft | 447 kts | 117° |
| 2026-05-04 11:26 | 21.75075 | 114.88162 | 23306 ft | 461 kts | 86° |
| 2026-05-04 11:27 | 21.77524 | 115.12596 | 25394 ft | 477 kts | 85° |
| 2026-05-04 11:28 | 21.77868 | 115.16143 | 25684 ft | 478 kts | 85° |
| 2026-05-04 11:28 | 21.78213 | 115.19717 | 25970 ft | 480 kts | 85° |
| 2026-05-04 11:28 | 21.78558 | 115.23300 | 26231 ft | 483 kts | 85° |
| 2026-05-04 11:28 | 21.78904 | 115.26899 | 26497 ft | 485 kts | 85° |
| 2026-05-04 11:29 | 21.79251 | 115.30456 | 26763 ft | 486 kts | 85° |
| 2026-05-04 11:29 | 21.79606 | 115.34099 | 27032 ft | 488 kts | 85° |
| 2026-05-04 11:29 | 21.79960 | 115.37734 | 27287 ft | 490 kts | 85° |
| 2026-05-04 11:29 | 21.80317 | 115.41399 | 27534 ft | 492 kts | 85° |
| 2026-05-04 11:31 | 21.82809 | 115.67409 | 29185 ft | 505 kts | 85° |
| 2026-05-04 11:33 | 21.85339 | 115.94034 | 30740 ft | 518 kts | 85° |
| 2026-05-04 11:33 | 21.85700 | 115.97892 | 31013 ft | 518 kts | 85° |
| 2026-05-04 11:33 | 21.86060 | 116.01755 | 31313 ft | 518 kts | 85° |
| 2026-05-04 11:34 | 21.86418 | 116.05616 | 31596 ft | 518 kts | 85° |
| 2026-05-04 11:34 | 21.86773 | 116.09472 | 31873 ft | 518 kts | 85° |
| 2026-05-04 11:34 | 21.87127 | 116.13327 | 32163 ft | 517 kts | 85° |
| 2026-05-04 11:34 | 21.87479 | 116.17175 | 32441 ft | 517 kts | 85° |
| 2026-05-04 11:35 | 21.87833 | 116.21029 | 32712 ft | 517 kts | 85° |
| 2026-05-04 11:35 | 21.88191 | 116.24892 | 32976 ft | 517 kts | 85° |
| 2026-05-04 11:35 | 21.88547 | 116.28744 | 33260 ft | 517 kts | 85° |
| 2026-05-04 11:35 | 21.88896 | 116.32541 | 33542 ft | 516 kts | 85° |
| 2026-05-04 11:36 | 21.89246 | 116.36391 | 33803 ft | 516 kts | 85° |
| 2026-05-04 11:36 | 21.89592 | 116.40244 | 34054 ft | 516 kts | 85° |
| 2026-05-04 11:36 | 21.89940 | 116.44090 | 34314 ft | 516 kts | 85° |
| 2026-05-04 11:36 | 21.90291 | 116.47936 | 34562 ft | 516 kts | 85° |
| 2026-05-04 11:37 | 21.90642 | 116.51788 | 34834 ft | 515 kts | 85° |
| 2026-05-04 11:37 | 21.90991 | 116.55627 | 35020 ft | 515 kts | 85° |
| 2026-05-04 11:37 | 21.91675 | 116.63265 | 35052 ft | 511 kts | 85° |
| 2026-05-04 11:38 | 21.92350 | 116.70873 | 35070 ft | 510 kts | 85° |
| 2026-05-04 11:38 | 21.93013 | 116.78475 | 35075 ft | 510 kts | 85° |
| 2026-05-04 11:39 | 21.93676 | 116.86022 | 35073 ft | 509 kts | 85° |
| 2026-05-04 11:41 | 21.95993 | 117.12625 | 35095 ft | 510 kts | 85° |
| 2026-05-04 11:41 | 21.96648 | 117.20235 | 35090 ft | 511 kts | 85° |
| 2026-05-04 11:42 | 21.97306 | 117.27855 | 35097 ft | 511 kts | 85° |
| 2026-05-04 11:42 | 21.97956 | 117.35489 | 35099 ft | 511 kts | 85° |
| 2026-05-04 11:43 | 21.98601 | 117.43120 | 35097 ft | 511 kts | 85° |
| 2026-05-04 11:43 | 22.00062 | 117.50593 | 35093 ft | 509 kts | 67° |
| 2026-05-04 11:44 | 22.03332 | 117.57306 | 35078 ft | 506 kts | 55° |
| 2026-05-04 11:44 | 22.06996 | 117.63741 | 35086 ft | 507 kts | 56° |
| 2026-05-04 11:45 | 22.10672 | 117.70239 | 35076 ft | 507 kts | 56° |
| 2026-05-04 11:45 | 22.14341 | 117.76722 | 35083 ft | 507 kts | 56° |
| 2026-05-04 11:46 | 22.18023 | 117.83231 | 35092 ft | 508 kts | 56° |
| 2026-05-04 11:46 | 22.21678 | 117.89715 | 35096 ft | 508 kts | 56° |
| 2026-05-04 11:47 | 22.25356 | 117.96231 | 35085 ft | 508 kts | 56° |
| 2026-05-04 11:47 | 22.28440 | 118.01683 | 35074 ft | 508 kts | 56° |
| 2026-05-04 11:48 | 22.32167 | 118.08111 | 35072 ft | 508 kts | 54° |
| 2026-05-04 11:48 | 22.35961 | 118.14548 | 35075 ft | 508 kts | 54° |
| 2026-05-04 11:49 | 22.39726 | 118.20978 | 35076 ft | 508 kts | 55° |
| 2026-05-04 11:49 | 22.44078 | 118.28572 | 35067 ft | 508 kts | 56° |
| 2026-05-04 11:50 | 22.47132 | 118.33998 | 35070 ft | 508 kts | 56° |
| 2026-05-04 11:50 | 22.50807 | 118.40537 | 35068 ft | 508 kts | 56° |
| 2026-05-04 11:51 | 22.54480 | 118.47070 | 35063 ft | 508 kts | 56° |
| 2026-05-04 11:51 | 22.58177 | 118.53611 | 35074 ft | 510 kts | 56° |
| 2026-05-04 11:52 | 22.61887 | 118.60097 | 35068 ft | 510 kts | 55° |
| 2026-05-04 11:52 | 22.65631 | 118.66644 | 35074 ft | 511 kts | 55° |
| 2026-05-04 11:53 | 22.69362 | 118.73210 | 35077 ft | 512 kts | 56° |
| 2026-05-04 11:53 | 22.73090 | 118.79786 | 35069 ft | 512 kts | 55° |
| 2026-05-04 11:55 | 22.87970 | 119.06087 | 35062 ft | 513 kts | 56° |
| 2026-05-04 11:56 | 22.91709 | 119.12702 | 35061 ft | 514 kts | 56° |
| 2026-05-04 11:56 | 22.95443 | 119.19335 | 35069 ft | 514 kts | 56° |
| 2026-05-04 11:57 | 22.99167 | 119.25972 | 35080 ft | 515 kts | 56° |
| 2026-05-04 11:57 | 23.02871 | 119.32566 | 35077 ft | 514 kts | 56° |
| 2026-05-04 11:58 | 23.06631 | 119.39243 | 35101 ft | 523 kts | 56° |
| 2026-05-04 11:58 | 23.10468 | 119.46071 | 35067 ft | 534 kts | 56° |
| 2026-05-04 11:59 | 23.14360 | 119.53021 | 35064 ft | 542 kts | 56° |
| 2026-05-04 11:59 | 23.19098 | 119.59321 | 35058 ft | 537 kts | 36° |
| 2026-05-04 12:00 | 23.25214 | 119.63793 | 35046 ft | 521 kts | 24° |
| 2026-05-04 12:00 | 23.28303 | 119.65736 | 35049 ft | 505 kts | 24° |
| 2026-05-04 12:00 | 23.31314 | 119.67641 | 35055 ft | 499 kts | 24° |
| 2026-05-04 12:01 | 23.37256 | 119.71397 | 34969 ft | 496 kts | 24° |
| 2026-05-04 12:01 | 23.40264 | 119.73289 | 34173 ft | 501 kts | 23° |
| 2026-05-04 12:02 | 23.57925 | 119.84911 | 31091 ft | 486 kts | 27° |
| 2026-05-04 12:03 | 23.60748 | 119.86909 | 30590 ft | 482 kts | 28° |
| 2026-05-04 12:03 | 23.63546 | 119.88880 | 30111 ft | 478 kts | 28° |
| 2026-05-04 12:03 | 23.66343 | 119.90832 | 29628 ft | 474 kts | 28° |
| 2026-05-04 12:03 | 23.69114 | 119.92746 | 29152 ft | 470 kts | 28° |
| 2026-05-04 12:04 | 23.71866 | 119.94635 | 28705 ft | 468 kts | 27° |
| 2026-05-04 12:04 | 23.74692 | 119.96563 | 28232 ft | 488 kts | 27° |
| 2026-05-04 12:04 | 23.77539 | 119.98508 | 27751 ft | 488 kts | 28° |
| 2026-05-04 12:04 | 23.80379 | 120.00469 | 27556 ft | 475 kts | 28° |
| 2026-05-04 12:05 | 23.83136 | 120.02386 | 27282 ft | 465 kts | 28° |
| 2026-05-04 12:05 | 23.85852 | 120.04280 | 26842 ft | 460 kts | 28° |
| 2026-05-04 12:05 | 23.88537 | 120.06146 | 26360 ft | 455 kts | 28° |
| 2026-05-04 12:05 | 23.91191 | 120.07986 | 25632 ft | 449 kts | 28° |
| 2026-05-04 12:06 | 23.93819 | 120.09802 | 25138 ft | 446 kts | 28° |
| 2026-05-04 12:06 | 23.96430 | 120.11606 | 24650 ft | 444 kts | 29° |
| 2026-05-04 12:06 | 23.99035 | 120.13407 | 24198 ft | 441 kts | 30° |
| 2026-05-04 12:06 | 24.01618 | 120.15197 | 23742 ft | 438 kts | 30° |
| 2026-05-04 12:07 | 24.04187 | 120.16982 | 23273 ft | 436 kts | 30° |
| 2026-05-04 12:07 | 24.06743 | 120.18757 | 22817 ft | 434 kts | 30° |
| 2026-05-04 12:07 | 24.09268 | 120.20512 | 22440 ft | 428 kts | 30° |
| 2026-05-04 12:07 | 24.11774 | 120.22256 | 22087 ft | 423 kts | 29° |
| 2026-05-04 12:08 | 24.14219 | 120.23960 | 22070 ft | 407 kts | 29° |
| 2026-05-04 12:08 | 24.16592 | 120.25614 | 22082 ft | 404 kts | 29° |
| 2026-05-04 12:08 | 24.18962 | 120.27261 | 22065 ft | 403 kts | 29° |
| 2026-05-04 12:08 | 24.21346 | 120.28919 | 21304 ft | 411 kts | 29° |
| 2026-05-04 12:09 | 24.23779 | 120.30608 | 20624 ft | 415 kts | 29° |
| 2026-05-04 12:09 | 24.26177 | 120.32279 | 20111 ft | 413 kts | 29° |
| 2026-05-04 12:09 | 24.28600 | 120.33974 | 19642 ft | 411 kts | 29° |
| 2026-05-04 12:09 | 24.30985 | 120.35645 | 19386 ft | 401 kts | 29° |
| 2026-05-04 12:10 | 24.33299 | 120.37272 | 19257 ft | 389 kts | 29° |
| 2026-05-04 12:10 | 24.35541 | 120.38890 | 18960 ft | 382 kts | 30° |
| 2026-05-04 12:10 | 24.37738 | 120.40502 | 18574 ft | 379 kts | 30° |
| 2026-05-04 12:10 | 24.39916 | 120.42109 | 18163 ft | 376 kts | 30° |
| 2026-05-04 12:11 | 24.42093 | 120.43689 | 17716 ft | 373 kts | 29° |
| 2026-05-04 12:11 | 24.44321 | 120.45245 | 16827 ft | 385 kts | 28° |
| 2026-05-04 12:11 | 24.46600 | 120.46802 | 16222 ft | 386 kts | 28° |
| 2026-05-04 12:11 | 24.48880 | 120.48355 | 15723 ft | 384 kts | 28° |
| 2026-05-04 12:12 | 24.51137 | 120.49898 | 15254 ft | 382 kts | 28° |
| 2026-05-04 12:12 | 24.53345 | 120.51417 | 14789 ft | 379 kts | 28° |
| 2026-05-04 12:12 | 24.55574 | 120.52953 | 14331 ft | 376 kts | 28° |
| 2026-05-04 12:12 | 24.57776 | 120.54475 | 13887 ft | 373 kts | 28° |
| 2026-05-04 12:13 | 24.59969 | 120.55992 | 13430 ft | 369 kts | 28° |
| 2026-05-04 12:14 | 24.73767 | 120.67395 | 10637 ft | 326 kts | 39° |
| 2026-05-04 12:15 | 24.75432 | 120.69040 | 10176 ft | 319 kts | 40° |
| 2026-05-04 12:15 | 24.77048 | 120.70637 | 9706 ft | 314 kts | 40° |
| 2026-05-04 12:15 | 24.78650 | 120.72213 | 9153 ft | 303 kts | 40° |
| 2026-05-04 12:15 | 24.80198 | 120.73732 | 8983 ft | 296 kts | 41° |
| 2026-05-04 12:16 | 24.81691 | 120.75294 | 8563 ft | 296 kts | 51° |
| 2026-05-04 12:16 | 24.82677 | 120.77259 | 8210 ft | 294 kts | 70° |
| 2026-05-04 12:16 | 24.83358 | 120.79356 | 7655 ft | 287 kts | 70° |
| 2026-05-04 12:16 | 24.83999 | 120.81351 | 7454 ft | 264 kts | 70° |
| 2026-05-04 12:17 | 24.84589 | 120.83198 | 7110 ft | 250 kts | 70° |
| 2026-05-04 12:17 | 24.85161 | 120.84985 | 6575 ft | 245 kts | 70° |
| 2026-05-04 12:17 | 24.85726 | 120.86736 | 6022 ft | 241 kts | 70° |
| 2026-05-04 12:17 | 24.86284 | 120.88465 | 5600 ft | 239 kts | 70° |
| 2026-05-04 12:18 | 24.86838 | 120.90194 | 5262 ft | 238 kts | 70° |
| 2026-05-04 12:18 | 24.87385 | 120.91908 | 4964 ft | 236 kts | 69° |
| 2026-05-04 12:18 | 24.87917 | 120.93569 | 4822 ft | 222 kts | 69° |
| 2026-05-04 12:18 | 24.88396 | 120.95075 | 4641 ft | 202 kts | 69° |
| 2026-05-04 12:19 | 24.88841 | 120.96479 | 4373 ft | 187 kts | 69° |
| 2026-05-04 12:19 | 24.89261 | 120.97798 | 3991 ft | 180 kts | 68° |
| 2026-05-04 12:19 | 24.89676 | 120.99097 | 3883 ft | 180 kts | 68° |
| 2026-05-04 12:19 | 24.90093 | 121.00399 | 3794 ft | 180 kts | 68° |
| 2026-05-04 12:20 | 24.90510 | 121.01697 | 3717 ft | 179 kts | 68° |
| 2026-05-04 12:20 | 24.90987 | 121.02957 | 3631 ft | 177 kts | 56° |
| 2026-05-04 12:20 | 24.91709 | 121.04053 | 3565 ft | 176 kts | 50° |
| 2026-05-04 12:20 | 24.92460 | 121.05055 | 3492 ft | 160 kts | 49° |
| 2026-05-04 12:21 | 24.93172 | 121.05972 | 3423 ft | 156 kts | 48° |
| 2026-05-04 12:21 | 24.93877 | 121.06870 | 3356 ft | 154 kts | 48° |
| 2026-05-04 12:21 | 24.94577 | 121.07759 | 3291 ft | 152 kts | 48° |
| 2026-05-04 12:21 | 24.95271 | 121.08638 | 3237 ft | 152 kts | 48° |
| 2026-05-04 12:22 | 24.95967 | 121.09520 | 3094 ft | 153 kts | 47° |
| 2026-05-04 12:22 | 24.96662 | 121.10399 | 2913 ft | 152 kts | 48° |
| 2026-05-04 12:22 | 24.97352 | 121.11275 | 2726 ft | 150 kts | 47° |
| 2026-05-04 12:22 | 24.98037 | 121.12142 | 2523 ft | 150 kts | 49° |
| 2026-05-04 12:23 | 24.98714 | 121.13001 | 2331 ft | 151 kts | 49° |
| 2026-05-04 12:23 | 24.99401 | 121.13870 | 2129 ft | 150 kts | 50° |
| 2026-05-04 12:23 | 25.00090 | 121.14743 | 1931 ft | 151 kts | 50° |
| 2026-05-04 12:23 | 25.00775 | 121.15613 | 1734 ft | 150 kts | 50° |
| 2026-05-04 12:24 | 25.01457 | 121.16477 | 1529 ft | 150 kts | 50° |
| 2026-05-04 12:24 | 25.02142 | 121.17345 | 1335 ft | 150 kts | 51° |
| 2026-05-04 12:24 | 25.02827 | 121.18215 | 1138 ft | 150 kts | 50° |
| 2026-05-04 12:24 | 25.03512 | 121.19083 | 938 ft | 149 kts | 50° |
| 2026-05-04 12:25 | 25.04184 | 121.19937 | 742 ft | 149 kts | 50° |
| 2026-05-04 12:25 | 25.04870 | 121.20806 | 548 ft | 150 kts | 50° |
| 2026-05-04 12:25 | 25.05555 | 121.21680 | 335 ft | 151 kts | 51° |
| 2026-05-04 12:25 | 25.06242 | 121.22560 | 132 ft | 149 kts | 51° |
| 2026-05-04 12:26 | 25.06831 | 121.23311 | 93 ft | 107 kts | 48° |
| 2026-05-04 12:26 | 25.07207 | 121.23785 | 93 ft | 57 kts | 48° |
| 2026-05-04 12:26 | 25.07403 | 121.24027 | 92 ft | 37 kts | 49° |
| 2026-05-04 12:26 | 25.07581 | 121.24181 | 94 ft | 23 kts | 29° |
| 2026-05-04 12:27 | 25.07699 | 121.24231 | 97 ft | 0 kts | 18° |
| 2026-05-04 12:27 | 25.07700 | 121.24231 | 97 ft | 0 kts | 18° |
| 2026-05-04 12:28 | 25.07700 | 121.24232 | 97 ft | 1 kts | 18° |
| 2026-05-04 12:28 | 25.07745 | 121.24248 | 98 ft | 8 kts | 19° |
| 2026-05-04 12:28 | 25.07790 | 121.24265 | 99 ft | 6 kts | 19° |
| 2026-05-04 12:28 | 25.07837 | 121.24280 | 100 ft | 7 kts | 6° |
| 2026-05-04 12:29 | 25.07883 | 121.24266 | 100 ft | 8 kts | 328° |
| 2026-05-04 12:29 | 25.07921 | 121.24233 | 100 ft | 6 kts | 321° |
| 2026-05-04 12:29 | 25.07959 | 121.24198 | 100 ft | 8 kts | 319° |
| 2026-05-04 12:29 | 25.07987 | 121.24150 | 101 ft | 7 kts | 277° |
| 2026-05-04 12:30 | 25.07969 | 121.24108 | 101 ft | 6 kts | 225° |
| 2026-05-04 12:30 | 25.07944 | 121.24076 | 101 ft | 6 kts | 229° |
| 2026-05-04 12:30 | 25.07908 | 121.24030 | 101 ft | 9 kts | 229° |
| 2026-05-04 12:30 | 25.07867 | 121.23977 | 100 ft | 9 kts | 230° |
| 2026-05-04 12:31 | 25.07824 | 121.23921 | 100 ft | 11 kts | 230° |
| 2026-05-04 12:31 | 25.07777 | 121.23859 | 101 ft | 10 kts | 230° |
| 2026-05-04 12:31 | 25.07733 | 121.23805 | 100 ft | 10 kts | 228° |
| 2026-05-04 12:31 | 25.07672 | 121.23726 | 101 ft | 15 kts | 229° |
| 2026-05-04 12:32 | 25.07606 | 121.23642 | 101 ft | 14 kts | 229° |
| 2026-05-04 12:32 | 25.07611 | 121.23526 | 101 ft | 6 kts | 316° |
| 2026-05-04 12:32 | 25.07616 | 121.23521 | 101 ft | 0 kts | 319° |
| 2026-05-04 12:33 | 25.07620 | 121.23518 | 101 ft | 2 kts | 319° |
| 2026-05-04 12:33 | 25.07621 | 121.23517 | 101 ft | 0 kts | 319° |
| 2026-05-04 12:34 | 25.07631 | 121.23507 | 101 ft | 3 kts | 319° |
| 2026-05-04 12:34 | 25.07645 | 121.23494 | 101 ft | 2 kts | 319° |
| 2026-05-04 12:34 | 25.07648 | 121.23492 | 101 ft | 0 kts | 319° |
| 2026-05-04 12:46 | 25.07647 | 121.23492 | 100 ft | 0 kts | 319° |